OK61 weather

CLOSED Major Heliport
Tulsa, Oklahoma, United States

Public forecast

Using degrees Fahrenheit for public forecast. Weather courtesy of forecast.io.

METAR (pilot weather report)

Closest report is Richard Lloyd Jones Jr Airport, 3.9 nm (7.3 km) SSE. Retrieved 2019/04/22 18:53 UTC (1 hour ago):

KRVS 221853Z 19010KT 10SM OVC023 21/16 A3002 RMK AO2 SLP171 T02110156

TAF (pilot weather forecast)

Closest forecast is Richard Lloyd Jones Jr Airport, 3.9 nm (7.3 km) SSE. Retrieved 2019/04/22 18:22 UTC (2 hours ago):

TAF KRVS 221720Z 2218/2318 20009KT P6SM OVC025 FM222100 20010KT P6SM BKN035 PROB30 2304/2310 5SM -TSRA BR BKN025CB FM231000 01006KT P6SM BKN025 TEMPO 2310/2314 4SM TSRA OVC015CB FM231400 01005KT 5SM -RA BKN025